createdAt,value
2022-10-29T00:00:52.556Z,1002.01
2022-10-29T00:01:52.587Z,1002.02
2022-10-29T00:02:52.569Z,1001.98
2022-10-29T00:03:52.526Z,1002.05
2022-10-29T00:04:52.516Z,1002.02
2022-10-29T00:05:52.498Z,1002.03
2022-10-29T00:06:52.527Z,1002.07
2022-10-29T00:07:52.673Z,1002.08
2022-10-29T00:08:52.469Z,1002.16
2022-10-29T00:09:52.449Z,1002.10
2022-10-29T00:10:52.453Z,1002.14
2022-10-29T00:11:52.470Z,1002.13
2022-10-29T00:12:52.438Z,1002.15
2022-10-29T00:13:52.411Z,1002.14
2022-10-29T00:14:52.402Z,1002.07
2022-10-29T00:15:52.392Z,1002.14
2022-10-29T00:16:52.412Z,1002.17
2022-10-29T00:17:52.439Z,1002.14
2022-10-29T00:18:52.376Z,1002.11
2022-10-29T00:19:52.344Z,1002.12
2022-10-29T00:20:52.344Z,1002.14
2022-10-29T00:21:52.345Z,1002.15
2022-10-29T00:22:52.475Z,1002.04
2022-10-29T00:23:52.326Z,1002.09
2022-10-29T00:24:52.305Z,1002.11
2022-10-29T00:25:52.297Z,1002.12
2022-10-29T00:26:52.298Z,1002.10
2022-10-29T00:27:52.266Z,1002.19
2022-10-29T00:28:52.265Z,1002.17
2022-10-29T00:29:52.249Z,1002.19
2022-10-29T00:30:52.239Z,1002.24
2022-10-29T00:31:52.298Z,1002.27
2022-10-29T00:32:52.319Z,1002.31
2022-10-29T00:33:52.208Z,1002.21
2022-10-29T00:34:52.232Z,1002.19
2022-10-29T00:35:52.179Z,1002.17
2022-10-29T00:36:52.200Z,1002.21
2022-10-29T00:37:52.290Z,1002.22
2022-10-29T00:38:52.159Z,1002.19
2022-10-29T00:39:52.140Z,1002.22
2022-10-29T00:40:52.134Z,1002.19
2022-10-29T00:41:52.131Z,1002.25
2022-10-29T00:42:52.112Z,1002.23
2022-10-29T00:43:52.100Z,1002.19
2022-10-29T00:44:52.092Z,1002.21
2022-10-29T00:45:52.073Z,1002.29
2022-10-29T00:46:52.093Z,1002.27
2022-10-29T00:47:52.152Z,1002.33
2022-10-29T00:48:52.050Z,1002.35
2022-10-29T00:49:52.047Z,1002.37
2022-10-29T00:50:52.035Z,1002.36
2022-10-29T00:51:52.034Z,1002.38
2022-10-29T00:52:52.009Z,1002.36
2022-10-29T00:53:51.993Z,1002.33
2022-10-29T00:54:51.987Z,1002.34
2022-10-29T00:55:51.968Z,1002.38
2022-10-29T00:56:51.987Z,1002.35
2022-10-29T00:57:51.961Z,1002.34
2022-10-29T00:58:51.946Z,1002.37
2022-10-29T00:59:51.941Z,1002.34
2022-10-29T01:00:51.927Z,1002.34
2022-10-29T01:01:51.985Z,1002.33
2022-10-29T01:02:51.959Z,1002.36
2022-10-29T01:03:51.889Z,1002.33
2022-10-29T01:04:51.888Z,1002.31
2022-10-29T01:05:51.872Z,1002.36
2022-10-29T01:06:51.881Z,1002.41
2022-10-29T01:07:51.841Z,1002.35
2022-10-29T01:08:51.842Z,1002.37
2022-10-29T01:09:51.831Z,1002.39
2022-10-29T01:10:51.819Z,1002.40
2022-10-29T01:11:51.823Z,1002.43
2022-10-29T01:12:51.794Z,1002.38
2022-10-29T01:13:51.782Z,1002.38
2022-10-29T01:14:51.773Z,1002.41
2022-10-29T01:15:51.763Z,1002.30
2022-10-29T01:16:51.773Z,1002.30
2022-10-29T01:17:51.744Z,1002.28
2022-10-29T01:18:51.770Z,1002.30
2022-10-29T01:19:51.715Z,1002.32
2022-10-29T01:20:51.717Z,1002.32
2022-10-29T01:21:51.713Z,1002.36
2022-10-29T01:22:51.687Z,1002.37
2022-10-29T01:23:51.672Z,1002.36
2022-10-29T01:24:51.671Z,1002.47
2022-10-29T01:25:51.648Z,1002.49
2022-10-29T01:26:51.667Z,1002.46
2022-10-29T01:27:51.627Z,1002.44
2022-10-29T01:28:51.630Z,1002.41
2022-10-29T01:29:51.629Z,1002.37
2022-10-29T01:30:51.611Z,1002.30
2022-10-29T01:31:51.610Z,1002.28
2022-10-29T01:32:51.588Z,1002.24
2022-10-29T01:33:51.569Z,1002.21
2022-10-29T01:34:51.570Z,1002.22
2022-10-29T01:35:51.554Z,1002.17
2022-10-29T01:36:51.562Z,1002.22
2022-10-29T01:37:51.533Z,1002.26
2022-10-29T01:38:51.523Z,1002.24
2022-10-29T01:39:51.504Z,1002.25
2022-10-29T01:40:51.513Z,1002.30
2022-10-29T01:41:51.503Z,1002.32
2022-10-29T01:42:51.475Z,1002.29
2022-10-29T01:43:51.464Z,1002.29
2022-10-29T01:44:51.454Z,1002.22
2022-10-29T01:45:51.458Z,1002.31
2022-10-29T01:46:51.454Z,1002.28
2022-10-29T01:47:51.424Z,1002.31
2022-10-29T01:48:51.417Z,1002.27
2022-10-29T01:49:51.407Z,1002.27
2022-10-29T01:50:51.394Z,1002.28
2022-10-29T01:51:51.407Z,1002.22
2022-10-29T01:52:51.377Z,1002.22
2022-10-29T01:53:51.359Z,1002.24
2022-10-29T01:54:51.359Z,1002.26
2022-10-29T01:55:51.338Z,1002.25
2022-10-29T01:56:51.349Z,1002.20
2022-10-29T01:57:51.317Z,1002.21
2022-10-29T01:58:51.310Z,1002.22
2022-10-29T01:59:55.900Z,1002.18
2022-10-29T02:00:52.339Z,1002.19
2022-10-29T02:01:51.330Z,1002.19
2022-10-29T02:02:51.262Z,1002.20
2022-10-29T02:03:51.251Z,1002.14
2022-10-29T02:04:51.251Z,1002.24
2022-10-29T02:05:51.233Z,1002.25
2022-10-29T02:06:51.250Z,1002.29
2022-10-29T02:07:51.211Z,1002.24
2022-10-29T02:08:51.204Z,1002.23
2022-10-29T02:09:51.194Z,1002.22
2022-10-29T02:10:51.188Z,1002.18
2022-10-29T02:11:51.185Z,1002.21
2022-10-29T02:12:51.164Z,1002.15
2022-10-29T02:13:51.156Z,1002.13
2022-10-29T02:14:51.150Z,1002.09
2022-10-29T02:15:51.135Z,1002.14
2022-10-29T02:16:51.138Z,1002.14
2022-10-29T02:17:51.106Z,1002.13
2022-10-29T02:18:51.107Z,1002.10
2022-10-29T02:19:51.077Z,1002.12
2022-10-29T02:20:51.077Z,1002.10
2022-10-29T02:21:51.079Z,1002.08
2022-10-29T02:22:51.056Z,1002.08
2022-10-29T02:23:51.039Z,1002.08
2022-10-29T02:24:51.050Z,1002.07
2022-10-29T02:25:51.117Z,1002.03
2022-10-29T02:26:51.029Z,1002.03
2022-10-29T02:27:51.001Z,1002.02
2022-10-29T02:28:50.989Z,1001.94
2022-10-29T02:29:50.981Z,1001.94
2022-10-29T02:30:50.970Z,1001.97
2022-10-29T02:31:50.962Z,1001.92
2022-10-29T02:32:50.990Z,1001.97
2022-10-29T02:33:50.955Z,1001.90
2022-10-29T02:34:50.925Z,1001.95
2022-10-29T02:35:50.936Z,1001.95
2022-10-29T02:36:50.903Z,1001.94
2022-10-29T02:37:50.914Z,1001.94
2022-10-29T02:38:50.882Z,1001.91
2022-10-29T02:39:50.882Z,1001.89
2022-10-29T02:40:50.867Z,1001.94
2022-10-29T02:41:50.856Z,1001.91
2022-10-29T02:42:50.859Z,1001.96
2022-10-29T02:43:50.839Z,1001.96
2022-10-29T02:44:50.818Z,1001.93
2022-10-29T02:45:50.820Z,1001.98
2022-10-29T02:46:50.798Z,1001.97
2022-10-29T02:47:50.808Z,1001.90
2022-10-29T02:48:50.785Z,1001.98
2022-10-29T02:49:50.776Z,1001.95
2022-10-29T02:50:50.759Z,1002.02
2022-10-29T02:51:50.759Z,1002.02
2022-10-29T02:52:50.758Z,1002.07
2022-10-29T02:53:50.733Z,1002.03
2022-10-29T02:54:50.720Z,1002.02
2022-10-29T02:55:50.711Z,1002.01
2022-10-29T02:56:50.700Z,1002.10
2022-10-29T02:57:50.710Z,1002.03
2022-10-29T02:58:50.681Z,1002.05
2022-10-29T02:59:50.671Z,1002.03
2022-10-29T03:00:50.660Z,1002.02
2022-10-29T03:01:50.788Z,1002.03
2022-10-29T03:02:50.743Z,1002.02
2022-10-29T03:03:50.644Z,1002.04
2022-10-29T03:04:50.612Z,1001.97
2022-10-29T03:05:50.615Z,1002.02
2022-10-29T03:06:50.595Z,1002.04
2022-10-29T03:07:50.634Z,1002.07
2022-10-29T03:08:50.575Z,1002.08
2022-10-29T03:09:50.567Z,1002.11
2022-10-29T03:10:50.555Z,1002.08
2022-10-29T03:11:50.547Z,1002.17
2022-10-29T03:12:50.546Z,1002.15
2022-10-29T03:13:50.525Z,1002.21
2022-10-29T03:14:50.507Z,1002.18
2022-10-29T03:15:50.508Z,1002.20
2022-10-29T03:16:50.509Z,1002.20
2022-10-29T03:17:50.505Z,1002.22
2022-10-29T03:18:50.469Z,1002.20
2022-10-29T03:19:50.459Z,1002.15
2022-10-29T03:20:50.446Z,1002.16
2022-10-29T03:21:50.455Z,1002.16
2022-10-29T03:22:50.448Z,1002.18
2022-10-29T03:23:50.433Z,1002.24
2022-10-29T03:24:50.402Z,1002.25
2022-10-29T03:25:54.602Z,1002.26
2022-10-29T03:26:51.391Z,1002.28
2022-10-29T03:27:50.404Z,1002.25
2022-10-29T03:28:50.380Z,1002.25
2022-10-29T03:29:50.367Z,1002.20
2022-10-29T03:30:51.295Z,1002.23
2022-10-29T03:31:50.337Z,1002.20
2022-10-29T03:32:50.343Z,1002.17
2022-10-29T03:33:50.314Z,1002.09
2022-10-29T03:34:51.297Z,1002.12
2022-10-29T03:35:50.370Z,1002.17
2022-10-29T03:36:50.275Z,1002.07
2022-10-29T03:37:50.286Z,1002.16
2022-10-29T03:38:50.257Z,1002.12
2022-10-29T03:39:50.257Z,1002.12
2022-10-29T03:40:50.238Z,1002.10
2022-10-29T03:41:50.238Z,1002.08
2022-10-29T03:42:50.234Z,1002.05
2022-10-29T03:43:50.250Z,1002.06
2022-10-29T03:44:50.190Z,1002.06
2022-10-29T03:45:50.206Z,1002.07
2022-10-29T03:46:50.177Z,1002.12
2022-10-29T03:47:50.188Z,1002.09
2022-10-29T03:48:50.150Z,1002.11
2022-10-29T03:49:50.148Z,1002.06
2022-10-29T03:50:50.131Z,1002.12
2022-10-29T03:51:50.122Z,1002.06
2022-10-29T03:52:50.123Z,1002.04
2022-10-29T03:53:50.143Z,1002.00
2022-10-29T03:54:50.082Z,1002.05
2022-10-29T03:55:50.082Z,1002.06
2022-10-29T03:56:50.074Z,1002.01
2022-10-29T03:57:50.074Z,1002.04
2022-10-29T03:58:50.043Z,1002.05
2022-10-29T03:59:52.524Z,1002.09
2022-10-29T04:00:50.024Z,1002.06
2022-10-29T04:01:50.116Z,1002.05
2022-10-29T04:02:50.066Z,1002.08
2022-10-29T04:03:49.996Z,1002.04
2022-10-29T04:04:49.976Z,1001.99
2022-10-29T04:05:49.985Z,1002.02
2022-10-29T04:06:49.958Z,1001.93
2022-10-29T04:07:49.976Z,1001.88
2022-10-29T04:08:49.938Z,1001.89
2022-10-29T04:09:49.929Z,1001.87
2022-10-29T04:10:49.919Z,1001.84
2022-10-29T04:11:49.908Z,1001.87
2022-10-29T04:12:49.909Z,1001.84
2022-10-29T04:13:49.890Z,1001.92
2022-10-29T04:15:49.867Z,1001.89
2022-10-29T04:16:49.849Z,1001.90
2022-10-29T04:17:49.860Z,1001.95
2022-10-29T04:18:49.833Z,1001.93
2022-10-29T04:19:49.822Z,1001.93
2022-10-29T04:28:10.298Z,1002.10
2022-10-29T04:28:50.727Z,1002.05
2022-10-29T04:29:49.722Z,1002.07
2022-10-29T04:30:49.703Z,1002.06
2022-10-29T04:31:49.695Z,1002.05
2022-10-29T04:32:49.707Z,1002.05
2022-10-29T04:33:49.676Z,1002.08
2022-10-29T04:34:49.680Z,1002.07
2022-10-29T04:35:49.647Z,1002.06
2022-10-29T04:36:49.637Z,1002.03
2022-10-29T04:37:49.647Z,1001.97
2022-10-29T04:38:49.620Z,1001.98
2022-10-29T04:39:49.608Z,1001.96
2022-10-29T04:40:49.596Z,1001.98
2022-10-29T04:41:49.598Z,1001.99
2022-10-29T04:42:49.602Z,1002.02
2022-10-29T04:43:49.568Z,1002.05
2022-10-29T04:44:49.550Z,1002.01
2022-10-29T04:45:49.548Z,1002.06
2022-10-29T04:46:49.532Z,1001.99
2022-10-29T04:47:49.541Z,1001.98
2022-10-29T04:48:49.579Z,1001.98
2022-10-29T04:49:49.500Z,1002.00
2022-10-29T04:50:49.492Z,1002.02
2022-10-29T04:51:49.483Z,1001.95
2022-10-29T04:52:49.483Z,1001.93
2022-10-29T04:53:49.464Z,1001.97
2022-10-29T04:54:49.450Z,1001.96
2022-10-29T04:55:49.441Z,1001.96
2022-10-29T04:56:49.423Z,1002.00
2022-10-29T04:57:49.434Z,1002.03
2022-10-29T04:58:49.415Z,1002.00
2022-10-29T04:59:49.403Z,1002.05
2022-10-29T05:00:49.465Z,1001.98
2022-10-29T05:01:49.379Z,1002.05
2022-10-29T05:02:49.377Z,1002.00
2022-10-29T05:03:49.361Z,1002.05
2022-10-29T05:04:49.337Z,1002.03
2022-10-29T05:05:49.335Z,1001.99
2022-10-29T05:06:49.318Z,1002.01
2022-10-29T05:07:49.327Z,1001.99
2022-10-29T05:08:49.299Z,1001.96
2022-10-29T05:09:49.299Z,1001.99
2022-10-29T05:10:49.278Z,1002.00
2022-10-29T05:11:49.270Z,1002.03
2022-10-29T05:12:49.278Z,1002.02
2022-10-29T05:13:49.251Z,1002.03
2022-10-29T05:14:49.231Z,1002.01
2022-10-29T05:15:52.977Z,1001.97
2022-10-29T05:16:49.233Z,1001.98
2022-10-29T05:17:49.206Z,1001.95
2022-10-29T05:18:49.201Z,1002.00
2022-10-29T05:19:49.189Z,1001.98
2022-10-29T05:20:49.170Z,1001.95
2022-10-29T05:21:49.182Z,1001.97
2022-10-29T05:22:49.143Z,1001.93
2022-10-29T05:23:49.145Z,1001.97
2022-10-29T05:24:49.125Z,1001.97
2022-10-29T05:25:49.139Z,1001.96
2022-10-29T05:26:49.131Z,1001.90
2022-10-29T05:27:49.105Z,1001.87
2022-10-29T05:28:49.085Z,1001.88
2022-10-29T05:29:49.076Z,1001.89
2022-10-29T05:30:49.066Z,1001.90
2022-10-29T05:31:49.078Z,1001.92
2022-10-29T05:32:49.046Z,1001.95
2022-10-29T05:33:51.217Z,1001.97
2022-10-29T05:34:50.021Z,1001.95
2022-10-29T05:35:49.017Z,1001.97
2022-10-29T05:36:48.997Z,1001.88
2022-10-29T05:37:49.009Z,1001.94
2022-10-29T05:38:48.978Z,1001.86
2022-10-29T05:39:48.969Z,1001.94
2022-10-29T05:40:48.957Z,1001.93
2022-10-29T05:41:48.950Z,1001.91
2022-10-29T05:42:48.958Z,1001.86
2022-10-29T05:43:48.932Z,1001.89
2022-10-29T05:44:48.860Z,1001.90
2022-10-29T05:45:48.913Z,1001.91
2022-10-29T05:46:48.894Z,1001.95
2022-10-29T05:47:48.902Z,1001.89
2022-10-29T05:48:48.872Z,1001.91
2022-10-29T05:49:48.822Z,1001.90
2022-10-29T05:50:48.794Z,1001.94
2022-10-29T05:51:48.850Z,1001.87
2022-10-29T05:52:48.846Z,1001.85
2022-10-29T05:53:48.822Z,1001.85
2022-10-29T05:54:48.765Z,1001.85
2022-10-29T05:55:48.814Z,1001.88
2022-10-29T05:56:48.786Z,1001.88
2022-10-29T05:57:48.798Z,1001.87
2022-10-29T05:58:48.736Z,1001.92
2022-10-29T05:59:48.705Z,1001.85
2022-10-29T06:00:48.694Z,1001.90
2022-10-29T06:01:48.784Z,1001.95
2022-10-29T06:02:48.739Z,1001.94
2022-10-29T06:03:48.697Z,1001.91
2022-10-29T06:04:48.667Z,1001.88
2022-10-29T06:05:48.638Z,1001.91
2022-10-29T06:06:48.705Z,1001.83
2022-10-29T06:07:48.660Z,1001.88
2022-10-29T06:08:48.609Z,1001.86
2022-10-29T06:09:48.599Z,1001.83
2022-10-29T06:10:48.595Z,1001.81
2022-10-29T06:11:48.600Z,1001.92
2022-10-29T06:12:48.569Z,1001.94
2022-10-29T06:13:48.561Z,1001.90
2022-10-29T06:14:48.540Z,1001.92
2022-10-29T06:15:48.533Z,1001.90
2022-10-29T06:16:48.533Z,1001.88
2022-10-29T06:17:48.522Z,1001.86
2022-10-29T06:18:48.492Z,1001.85
2022-10-29T06:19:48.505Z,1001.90
2022-10-29T06:20:48.482Z,1001.86
2022-10-29T06:21:48.491Z,1001.89
2022-10-29T06:22:48.465Z,1001.95
2022-10-29T06:23:48.455Z,1001.95
2022-10-29T06:24:48.446Z,1001.90
2022-10-29T06:25:48.429Z,1001.87
2022-10-29T06:26:48.436Z,1001.94
2022-10-29T06:27:48.426Z,1001.81
2022-10-29T06:28:48.398Z,1001.82
2022-10-29T06:29:48.386Z,1001.80
2022-10-29T06:30:48.376Z,1001.82
2022-10-29T06:31:48.390Z,1001.82
2022-10-29T06:32:48.348Z,1001.81
2022-10-29T06:33:48.345Z,1001.82
2022-10-29T06:34:48.338Z,1001.85
2022-10-29T06:35:48.326Z,1001.80
2022-10-29T06:36:48.309Z,1001.77
2022-10-29T06:37:48.323Z,1001.76
2022-10-29T06:38:48.290Z,1001.77
2022-10-29T06:39:48.282Z,1001.89
2022-10-29T06:40:48.271Z,1001.84
2022-10-29T06:41:48.259Z,1001.86
2022-10-29T06:42:48.268Z,1001.85
2022-10-29T06:43:48.232Z,1001.86
2022-10-29T06:44:48.231Z,1001.89
2022-10-29T06:45:48.215Z,1001.91
2022-10-29T06:46:48.207Z,1001.87
2022-10-29T06:47:48.250Z,1001.88
2022-10-29T06:48:48.189Z,1001.83
2022-10-29T06:49:48.178Z,1001.77
2022-10-29T06:50:48.173Z,1001.77
2022-10-29T06:51:48.151Z,1001.83
2022-10-29T06:52:48.161Z,1001.84
2022-10-29T06:53:48.132Z,1001.91
2022-10-29T06:54:48.124Z,1001.94
2022-10-29T06:55:48.105Z,1001.90
2022-10-29T06:56:48.104Z,1001.93
2022-10-29T06:57:48.097Z,1001.95
2022-10-29T06:58:48.077Z,1002.01
2022-10-29T06:59:48.078Z,1002.01
2022-10-29T07:00:48.182Z,1001.89
2022-10-29T07:01:48.102Z,1001.89
2022-10-29T07:02:48.055Z,1001.88
2022-10-29T07:03:48.020Z,1001.84
2022-10-29T07:04:48.018Z,1001.80
2022-10-29T07:05:47.998Z,1001.80
2022-10-29T07:06:47.991Z,1001.77
2022-10-29T07:07:48.006Z,1001.76
2022-10-29T07:08:47.977Z,1001.74
2022-10-29T07:09:47.960Z,1001.70
2022-10-29T07:10:47.953Z,1001.80
2022-10-29T07:11:47.932Z,1001.74
2022-10-29T07:12:47.941Z,1001.75
2022-10-29T07:13:47.923Z,1001.74
2022-10-29T07:14:47.909Z,1001.83
2022-10-29T07:15:47.903Z,1001.82
2022-10-29T07:16:47.902Z,1001.83
2022-10-29T07:17:47.874Z,1001.83
2022-10-29T07:18:47.871Z,1001.82
2022-10-29T07:19:47.852Z,1001.76
2022-10-29T07:20:47.845Z,1001.76
2022-10-29T07:21:47.845Z,1001.76
2022-10-29T07:22:47.825Z,1001.84
2022-10-29T07:23:47.806Z,1001.81
2022-10-29T07:24:47.806Z,1001.78
2022-10-29T07:25:47.789Z,1001.80
2022-10-29T07:26:47.817Z,1001.76
2022-10-29T07:27:47.856Z,1001.78
2022-10-29T07:28:47.765Z,1001.83
2022-10-29T07:29:47.745Z,1001.83
2022-10-29T07:30:47.743Z,1001.88
2022-10-29T07:31:47.739Z,1001.92
2022-10-29T07:32:47.719Z,1001.93
2022-10-29T07:33:47.699Z,1001.91
2022-10-29T07:34:47.700Z,1001.88
2022-10-29T07:35:47.680Z,1001.90
2022-10-29T07:36:47.701Z,1001.98
2022-10-29T07:37:47.665Z,1001.96
2022-10-29T07:38:47.657Z,1001.96
2022-10-29T07:39:47.639Z,1001.96
2022-10-29T07:40:47.631Z,1001.99
2022-10-29T07:41:47.639Z,1002.00
2022-10-29T07:42:47.613Z,1002.05
2022-10-29T07:43:47.606Z,1002.03
2022-10-29T07:44:47.602Z,1002.04
2022-10-29T07:45:47.582Z,1002.04
2022-10-29T07:46:47.584Z,1002.06
2022-10-29T07:47:47.553Z,1002.05
2022-10-29T07:48:47.564Z,1002.06
2022-10-29T07:49:47.536Z,1002.08
2022-10-29T07:50:47.527Z,1002.06
2022-10-29T07:51:47.528Z,1002.10
2022-10-29T07:52:47.506Z,1002.12
2022-10-29T07:53:47.496Z,1002.08
2022-10-29T07:54:47.496Z,1002.04
2022-10-29T07:55:47.468Z,1002.04
2022-10-29T07:56:47.930Z,1002.05
2022-10-29T07:57:47.447Z,1002.08
2022-10-29T07:58:47.448Z,1002.08
2022-10-29T07:59:47.429Z,1002.09
2022-10-29T08:00:47.461Z,1002.07
2022-10-29T08:01:47.534Z,1002.11
2022-10-29T08:02:47.399Z,1002.13
2022-10-29T08:03:47.390Z,1002.12
2022-10-29T08:04:47.378Z,1002.10
2022-10-29T08:05:48.912Z,1002.06
2022-10-29T08:06:47.359Z,1002.05
2022-10-29T08:07:47.359Z,1002.11
2022-10-29T08:08:47.333Z,1001.99
2022-10-29T08:09:47.324Z,1001.99
2022-10-29T08:10:47.312Z,1002.00
2022-10-29T08:12:47.322Z,1002.00
2022-10-29T08:13:47.283Z,1001.99
2022-10-29T08:14:47.274Z,1001.96
2022-10-29T08:15:47.261Z,1002.02
2022-10-29T08:16:47.255Z,1001.94
2022-10-29T08:17:47.254Z,1002.01
2022-10-29T08:18:47.236Z,1001.93
2022-10-29T08:19:47.215Z,1001.88
2022-10-29T08:20:47.226Z,1001.89
2022-10-29T08:21:47.203Z,1001.87
2022-10-29T08:22:47.216Z,1001.84
2022-10-29T08:23:47.180Z,1001.87
2022-10-29T08:24:47.173Z,1001.82
2022-10-29T08:25:47.153Z,1001.77
2022-10-29T08:26:47.148Z,1001.78
2022-10-29T08:27:47.201Z,1001.82
2022-10-29T08:28:47.147Z,1001.78
2022-10-29T08:29:47.110Z,1001.82
2022-10-29T08:30:47.111Z,1001.80
2022-10-29T08:31:47.090Z,1001.84
2022-10-29T08:32:47.100Z,1001.85
2022-10-29T08:33:47.071Z,1001.84
2022-10-29T08:34:47.066Z,1001.90
2022-10-29T08:35:47.044Z,1001.87
2022-10-29T08:36:47.066Z,1001.90
2022-10-29T08:37:47.030Z,1001.86
2022-10-29T08:38:47.022Z,1001.87
2022-10-29T08:39:47.009Z,1001.82
2022-10-29T08:40:47.006Z,1001.79
2022-10-29T08:41:47.005Z,1001.82
2022-10-29T08:42:46.985Z,1001.85
2022-10-29T08:43:47.715Z,1001.91
2022-10-29T08:44:46.965Z,1001.90
2022-10-29T08:45:46.945Z,1001.82
2022-10-29T08:46:46.956Z,1001.89
2022-10-29T08:47:46.926Z,1001.84
2022-10-29T08:48:46.915Z,1001.91
2022-10-29T08:49:46.915Z,1001.91
2022-10-29T08:50:46.897Z,1001.95
2022-10-29T08:51:46.906Z,1002.02
2022-10-29T08:52:53.007Z,1002.10
2022-10-29T08:53:58.875Z,1002.08
2022-10-29T08:54:47.849Z,1002.06
2022-10-29T08:55:46.847Z,1002.10
2022-10-29T08:56:46.852Z,1002.07
2022-10-29T08:57:46.838Z,1001.98
2022-10-29T08:58:46.838Z,1001.92
2022-10-29T08:59:46.800Z,1001.97
2022-10-29T09:00:46.863Z,1001.94
2022-10-29T09:01:46.926Z,1001.95
2022-10-29T09:02:46.791Z,1001.92
2022-10-29T09:03:46.763Z,1001.91
2022-10-29T09:04:46.750Z,1001.93
2022-10-29T09:05:46.734Z,1001.96
2022-10-29T09:06:46.732Z,1001.91
2022-10-29T09:07:46.751Z,1001.92
2022-10-29T09:08:46.712Z,1001.88
2022-10-29T09:09:46.693Z,1001.92
2022-10-29T09:10:46.686Z,1002.00
2022-10-29T09:11:46.675Z,1001.97
2022-10-29T09:12:46.684Z,1002.01
2022-10-29T09:13:46.652Z,1002.07
2022-10-29T09:14:46.647Z,1002.04
2022-10-29T09:15:46.635Z,1002.09
2022-10-29T09:16:46.624Z,1002.12
2022-10-29T09:17:46.627Z,1002.04
2022-10-29T09:18:46.607Z,1002.08
2022-10-29T09:19:46.588Z,1002.00
2022-10-29T09:20:46.590Z,1002.09
2022-10-29T09:21:46.568Z,1002.02
2022-10-29T09:22:46.579Z,1002.02
2022-10-29T09:23:46.550Z,1001.97
2022-10-29T09:24:46.540Z,1001.94
2022-10-29T09:25:46.532Z,1001.97
2022-10-29T09:26:46.530Z,1001.92
2022-10-29T09:27:46.528Z,1001.97
2022-10-29T09:28:46.500Z,1001.88
2022-10-29T09:29:46.501Z,1001.89
2022-10-29T09:30:46.480Z,1001.96
2022-10-29T09:31:46.463Z,1001.91
2022-10-29T09:32:46.530Z,1001.91
2022-10-29T09:33:46.440Z,1001.93
2022-10-29T09:34:46.432Z,1001.93
2022-10-29T09:35:46.432Z,1001.86
2022-10-29T09:36:46.413Z,1001.91
2022-10-29T09:37:46.415Z,1001.83
2022-10-29T09:38:46.395Z,1001.90
2022-10-29T09:39:46.374Z,1001.86
2022-10-29T09:40:46.368Z,1001.85
2022-10-29T09:41:46.356Z,1001.87
2022-10-29T09:42:46.363Z,1001.84
2022-10-29T09:43:46.326Z,1001.81
2022-10-29T09:44:46.335Z,1001.88
2022-10-29T09:45:46.309Z,1001.83
2022-10-29T09:46:46.298Z,1001.80
2022-10-29T09:47:46.309Z,1001.81
2022-10-29T09:48:46.280Z,1001.75
2022-10-29T09:49:46.259Z,1001.82
2022-10-29T09:50:46.261Z,1001.83
2022-10-29T09:51:46.239Z,1001.83
2022-10-29T09:52:46.259Z,1001.80
2022-10-29T09:53:46.241Z,1001.81
2022-10-29T09:54:46.241Z,1001.76
2022-10-29T09:55:46.203Z,1001.73
2022-10-29T09:56:46.192Z,1001.71
2022-10-29T09:57:46.192Z,1001.68
2022-10-29T09:58:46.172Z,1001.68
2022-10-29T09:59:46.164Z,1001.69
2022-10-29T10:00:46.153Z,1001.70
2022-10-29T10:01:46.181Z,1001.67
2022-10-29T10:02:46.229Z,1001.68
2022-10-29T10:03:46.116Z,1001.71
2022-10-29T10:04:46.104Z,1001.62
2022-10-29T10:05:46.095Z,1001.65
2022-10-29T10:06:46.086Z,1001.65
2022-10-29T10:07:46.087Z,1001.69
2022-10-29T10:08:46.065Z,1001.66
2022-10-29T10:09:46.050Z,1001.69
2022-10-29T10:10:46.045Z,1001.60
2022-10-29T10:11:46.026Z,1001.66
2022-10-29T10:12:46.037Z,1001.56
2022-10-29T10:13:46.022Z,1001.58
2022-10-29T10:14:46.006Z,1001.52
2022-10-29T10:15:45.986Z,1001.54
2022-10-29T10:16:45.977Z,1001.51
2022-10-29T10:17:45.981Z,1001.48
2022-10-29T10:18:45.965Z,1001.51
2022-10-29T10:19:45.939Z,1001.54
2022-10-29T10:20:45.939Z,1001.53
2022-10-29T10:21:45.920Z,1001.56
2022-10-29T10:22:45.932Z,1001.51
2022-10-29T10:23:45.901Z,1001.48
2022-10-29T10:24:45.893Z,1001.48
2022-10-29T10:25:45.923Z,1001.46
2022-10-29T10:26:45.875Z,1001.44
2022-10-29T10:27:45.874Z,1001.46
2022-10-29T10:28:45.855Z,1001.48
2022-10-29T10:29:45.835Z,1001.50
2022-10-29T10:30:45.835Z,1001.45
2022-10-29T10:31:45.812Z,1001.46
2022-10-29T10:32:45.824Z,1001.46
2022-10-29T10:33:45.795Z,1001.43
2022-10-29T10:34:45.795Z,1001.44
2022-10-29T10:35:45.773Z,1001.45
2022-10-29T10:36:45.766Z,1001.41
2022-10-29T10:37:45.775Z,1001.39
2022-10-29T10:38:45.746Z,1001.40
2022-10-29T10:39:45.729Z,1001.46
2022-10-29T10:40:45.726Z,1001.45
2022-10-29T10:41:45.718Z,1001.39
2022-10-29T10:42:45.718Z,1001.40
2022-10-29T10:43:45.680Z,1001.40
2022-10-29T10:44:45.680Z,1001.38
2022-10-29T10:45:45.671Z,1001.41
2022-10-29T10:46:45.662Z,1001.33
2022-10-29T10:47:45.662Z,1001.30
2022-10-29T10:48:45.652Z,1001.26
2022-10-29T10:49:45.625Z,1001.30
2022-10-29T10:50:45.622Z,1001.34
2022-10-29T10:51:45.604Z,1001.36
2022-10-29T10:52:45.614Z,1001.36
2022-10-29T10:53:45.584Z,1001.34
2022-10-29T10:54:45.672Z,1001.33
2022-10-29T10:55:45.564Z,1001.31
2022-10-29T10:56:45.557Z,1001.36
2022-10-29T10:57:45.566Z,1001.27
2022-10-29T10:58:45.534Z,1001.25
2022-10-29T10:59:45.538Z,1001.37
2022-10-29T11:00:45.603Z,1001.26
2022-10-29T11:01:45.656Z,1001.25
2022-10-29T11:02:45.515Z,1001.21
2022-10-29T11:03:45.485Z,1001.18
2022-10-29T11:04:45.468Z,1001.19
2022-10-29T11:05:45.460Z,1001.23
2022-10-29T11:06:45.460Z,1001.20
2022-10-29T11:07:45.461Z,1001.18
2022-10-29T11:08:45.432Z,1001.08
2022-10-29T11:09:45.429Z,1001.11
2022-10-29T11:10:45.411Z,1001.08
2022-10-29T11:11:45.403Z,1001.09
2022-10-29T11:12:45.402Z,1001.06
2022-10-29T11:13:45.383Z,1001.05
2022-10-29T11:14:45.362Z,1001.13
2022-10-29T11:15:45.373Z,1001.08
2022-10-29T11:16:45.351Z,1001.06
2022-10-29T11:17:47.764Z,1000.99
2022-10-29T11:18:46.315Z,1001.12
2022-10-29T11:19:45.318Z,1001.09
2022-10-29T11:20:45.311Z,1001.00
2022-10-29T11:21:45.307Z,1001.03
2022-10-29T11:22:45.309Z,1001.03
2022-10-29T11:23:45.279Z,1001.00
2022-10-29T11:24:45.269Z,1000.93
2022-10-29T11:25:45.262Z,1000.97
2022-10-29T11:26:45.238Z,1000.97
2022-10-29T11:27:45.256Z,1000.90
2022-10-29T11:28:45.220Z,1000.86
2022-10-29T11:29:49.257Z,1000.83
2022-10-29T11:30:46.199Z,1000.81
2022-10-29T11:31:45.218Z,1000.83
2022-10-29T11:32:45.199Z,1000.82
2022-10-29T11:33:45.171Z,1000.80
2022-10-29T11:34:45.171Z,1000.78
2022-10-29T11:35:45.159Z,1000.79
2022-10-29T11:36:45.139Z,1000.78
2022-10-29T11:37:45.162Z,1000.71
2022-10-29T11:38:45.112Z,1000.77
2022-10-29T11:39:45.122Z,1000.76
2022-10-29T11:40:45.096Z,1000.68
2022-10-29T11:41:45.098Z,1000.68
2022-10-29T11:42:45.105Z,1000.66
2022-10-29T11:43:45.085Z,1000.66
2022-10-29T11:44:45.058Z,1000.65
2022-10-29T11:45:45.053Z,1000.61
2022-10-29T11:46:45.044Z,1000.66
2022-10-29T11:47:45.047Z,1000.60
2022-10-29T11:48:45.014Z,1000.53
2022-10-29T11:49:45.007Z,1000.50
2022-10-29T11:50:44.988Z,1000.43
2022-10-29T11:51:44.990Z,1000.51
2022-10-29T11:52:44.988Z,1000.50
2022-10-29T11:53:44.967Z,1000.43
2022-10-29T11:54:44.948Z,1000.52
2022-10-29T11:55:44.950Z,1000.61
2022-10-29T11:56:44.931Z,1000.54
2022-10-29T11:57:44.942Z,1000.62
2022-10-29T11:58:44.915Z,1000.65
2022-10-29T11:59:44.901Z,1000.58
2022-10-29T12:00:44.883Z,1000.56
2022-10-29T12:01:44.972Z,1000.59
2022-10-29T12:02:44.884Z,1000.57
2022-10-29T12:03:44.940Z,1000.53
2022-10-29T12:04:44.844Z,1000.52
2022-10-29T12:05:44.835Z,1000.49
2022-10-29T12:06:44.822Z,1000.48
2022-10-29T12:07:44.835Z,1000.52
2022-10-29T12:08:44.805Z,1000.65
2022-10-29T12:09:44.805Z,1000.56
2022-10-29T12:10:44.785Z,1000.58
2022-10-29T12:11:44.768Z,1000.53
2022-10-29T12:12:44.774Z,1000.49
2022-10-29T12:13:44.764Z,1000.51
2022-10-29T12:14:44.751Z,1000.51